Time;durP1;ratioP1;P1;durP2;ratioP2;P2;SDS_P1;SDS_P2;PMS_P1;PMS_P2;Temp;Humidity;BMP_temperature;BMP_pressure;BME280_temperature;BME280_humidity;BME280_pressure;Samples;Min_cycle;Max_cycle;Signal;HPM_P1;HPM_P2
2022/11/22 00:00:19;;;;;;;8.00;4.80;;;7.80;99.90;;;;;;5084666;28;20440;-83
2022/11/22 00:02:46;;;;;;;6.67;4.80;;;7.70;99.90;;;;;;5079444;28;20499;-83
2022/11/22 00:05:13;;;;;;;9.40;5.10;;;7.70;99.90;;;;;;5090360;28;20448;-84
2022/11/22 00:07:40;;;;;;;7.00;5.00;;;7.70;99.90;;;;;;5081785;28;20440;-84
2022/11/22 00:10:11;;;;;;;6.27;5.20;;;7.70;99.90;;;;;;5078455;28;21010;-84
2022/11/22 00:12:38;;;;;;;11.10;4.80;;;7.70;99.90;;;;;;5081106;28;20837;-84
2022/11/22 00:15:06;;;;;;;6.70;3.83;;;7.70;99.90;;;;;;5091832;28;20822;-84
2022/11/22 00:17:34;;;;;;;6.10;4.10;;;7.80;99.90;;;;;;5089920;28;20459;-84
2022/11/22 00:20:00;;;;;;;8.00;3.67;;;7.80;99.90;;;;;;5079463;28;20459;-85
2022/11/22 00:22:27;;;;;;;6.83;4.07;;;7.80;99.90;;;;;;5077663;28;20475;-85
2022/11/22 00:24:54;;;;;;;4.67;4.00;;;7.80;99.90;;;;;;5078494;28;20450;-83
2022/11/22 00:27:22;;;;;;;8.60;5.23;;;7.80;99.90;;;;;;5078407;28;20448;-83
2022/11/22 00:29:48;;;;;;;8.87;4.40;;;7.80;99.90;;;;;;5078059;28;20491;-84
2022/11/22 00:32:16;;;;;;;7.77;4.93;;;7.80;99.90;;;;;;5078288;28;20460;-83
2022/11/22 00:34:42;;;;;;;10.63;5.00;;;7.80;99.90;;;;;;5077451;28;20836;-84
2022/11/22 00:37:09;;;;;;;7.57;5.40;;;7.70;99.90;;;;;;5077191;28;20447;-84
2022/11/22 00:39:36;;;;;;;7.43;6.23;;;7.80;99.90;;;;;;5079149;28;20447;-84
2022/11/22 00:42:03;;;;;;;9.00;6.23;;;7.80;99.90;;;;;;5097955;28;20459;-84
2022/11/22 00:44:31;;;;;;;11.53;7.60;;;7.80;99.90;;;;;;5098375;28;20408;-84
2022/11/22 00:46:57;;;;;;;9.23;5.67;;;7.80;99.90;;;;;;5088329;28;20955;-84
2022/11/22 00:49:24;;;;;;;6.00;4.17;;;7.80;99.90;;;;;;5075960;28;20487;-83
2022/11/22 00:51:51;;;;;;;4.13;3.50;;;7.80;99.90;;;;;;5077175;28;20523;-84
2022/11/22 00:54:18;;;;;;;4.30;3.20;;;7.80;99.90;;;;;;5084924;28;20811;-84
2022/11/22 00:56:44;;;;;;;4.10;2.60;;;7.90;99.90;;;;;;5079194;28;20448;-84
2022/11/22 00:59:11;;;;;;;8.63;4.00;;;7.90;99.90;;;;;;5077844;28;20956;-84
2022/11/22 01:01:39;;;;;;;6.57;3.60;;;8.00;99.90;;;;;;5077687;28;20455;-85
2022/11/22 01:04:06;;;;;;;5.07;3.60;;;8.00;99.90;;;;;;5078063;28;20547;-84
2022/11/22 01:06:32;;;;;;;6.63;3.50;;;8.00;99.90;;;;;;5077037;28;20451;-84
2022/11/22 01:08:59;;;;;;;6.60;3.17;;;8.00;99.90;;;;;;5077817;28;20443;-84
2022/11/22 01:11:26;;;;;;;4.13;3.27;;;8.10;99.90;;;;;;5077220;28;20480;-84
2022/11/22 01:13:52;;;;;;;3.90;3.23;;;8.10;99.90;;;;;;5078432;28;20447;-84
2022/11/22 01:16:19;;;;;;;5.87;3.00;;;8.10;99.90;;;;;;5077593;28;20826;-84
2022/11/22 01:18:47;;;;;;;4.67;2.50;;;8.10;99.90;;;;;;5076585;28;20924;-84
2022/11/22 01:21:14;;;;;;;5.73;2.80;;;8.10;99.90;;;;;;5077603;28;20495;-84
2022/11/22 01:23:41;;;;;;;7.33;2.93;;;8.20;99.90;;;;;;5077001;28;20463;-84
2022/11/22 01:26:08;;;;;;;3.37;2.80;;;8.20;99.90;;;;;;5076791;28;20854;-84
2022/11/22 01:28:35;;;;;;;5.53;3.10;;;8.20;99.90;;;;;;5076998;28;20444;-84
2022/11/22 01:31:02;;;;;;;4.80;2.20;;;8.30;99.90;;;;;;5089516;28;20487;-83
2022/11/22 01:33:29;;;;;;;4.13;2.70;;;8.20;99.90;;;;;;5087576;28;20554;-84
2022/11/22 01:35:57;;;;;;;3.80;2.33;;;8.20;99.90;;;;;;5080342;28;20436;-84
2022/11/22 01:38:24;;;;;;;5.70;2.93;;;8.20;99.90;;;;;;5089044;28;20505;-85
2022/11/22 01:40:50;;;;;;;2.90;2.50;;;8.20;99.90;;;;;;5087357;28;20452;-83
2022/11/22 01:43:19;;;;;;;4.73;2.73;;;8.20;99.90;;;;;;5077319;22;20524;-86
2022/11/22 01:45:48;;;;;;;3.00;2.20;;;8.30;99.90;;;;;;5052145;28;20441;-86
2022/11/22 01:48:30;;;;;;;3.23;1.93;;;8.30;99.90;;;;;;5051925;28;20444;-86
2022/11/22 01:51:03;;;;;;;3.70;2.30;;;8.40;99.90;;;;;;5054550;28;20483;-86
2022/11/22 01:53:33;;;;;;;3.07;1.80;;;8.40;99.90;;;;;;5055404;28;20475;-86
2022/11/22 01:56:01;;;;;;;3.67;1.90;;;8.40;99.90;;;;;;5051712;28;20948;-86
2022/11/22 01:58:32;;;;;;;3.33;1.80;;;8.50;99.90;;;;;;5051820;28;20483;-86
2022/11/22 02:00:59;;;;;;;4.40;2.27;;;8.50;99.90;;;;;;5052149;28;20445;-86
2022/11/22 02:03:28;;;;;;;2.80;2.27;;;8.50;99.90;;;;;;5059443;28;20463;-85
2022/11/22 02:05:56;;;;;;;6.53;2.40;;;8.50;99.90;;;;;;5064142;28;20448;-86
2022/11/22 02:08:30;;;;;;;4.27;2.00;;;8.50;99.90;;;;;;5063754;28;20424;-86
2022/11/22 02:10:59;;;;;;;3.90;1.80;;;8.50;99.90;;;;;;5068527;28;20483;-86
2022/11/22 02:13:27;;;;;;;4.30;2.40;;;8.50;99.90;;;;;;5066264;28;20453;-86
2022/11/22 02:15:54;;;;;;;5.00;2.20;;;8.60;99.90;;;;;;5056922;28;20459;-86
2022/11/22 02:18:21;;;;;;;3.60;2.33;;;8.60;99.90;;;;;;5055707;28;20444;-86
2022/11/22 02:20:48;;;;;;;5.63;2.27;;;8.60;99.90;;;;;;5055745;28;20960;-86
2022/11/22 02:23:23;;;;;;;4.87;2.27;;;8.60;99.90;;;;;;5056039;28;20479;-86
2022/11/22 02:25:54;;;;;;;3.80;1.90;;;8.60;99.90;;;;;;5055658;28;20448;-87
2022/11/22 02:28:21;;;;;;;4.67;2.17;;;8.60;99.90;;;;;;5074421;28;20429;-86
2022/11/22 02:30:48;;;;;;;2.80;1.87;;;8.60;99.90;;;;;;5072713;28;20485;-87
2022/11/22 02:33:15;;;;;;;6.40;2.17;;;8.50;99.90;;;;;;5055836;28;20472;-86
2022/11/22 02:35:42;;;;;;;4.27;2.17;;;8.60;99.90;;;;;;5055376;28;20515;-86
2022/11/22 02:38:12;;;;;;;5.53;2.50;;;8.60;99.90;;;;;;5055211;28;20456;-86
2022/11/22 02:40:42;;;;;;;8.63;2.57;;;8.60;99.90;;;;;;5055252;28;21188;-86
2022/11/22 02:43:14;;;;;;;4.73;2.20;;;8.60;99.90;;;;;;5054549;28;21191;-86
2022/11/22 02:45:41;;;;;;;3.70;2.40;;;8.60;99.90;;;;;;5055302;28;20448;-86
2022/11/22 02:48:10;;;;;;;3.10;2.00;;;8.50;99.90;;;;;;5054682;28;20449;-86
2022/11/22 02:50:36;;;;;;;8.47;2.40;;;8.50;99.90;;;;;;5054579;28;20514;-86
2022/11/22 02:53:04;;;;;;;4.80;2.60;;;8.40;99.90;;;;;;5054600;28;20842;-86
2022/11/22 02:55:31;;;;;;;3.07;2.50;;;8.40;99.90;;;;;;5054923;28;20445;-87
2022/11/22 02:57:58;;;;;;;4.87;2.87;;;8.40;99.90;;;;;;5054489;28;20456;-86
2022/11/22 03:00:26;;;;;;;4.67;2.77;;;8.40;99.90;;;;;;5057050;28;20437;-87
2022/11/22 03:02:53;;;;;;;6.53;3.43;;;8.30;99.90;;;;;;5073646;28;20460;-86
2022/11/22 03:05:19;;;;;;;5.80;2.83;;;8.10;99.90;;;;;;5076088;28;20429;-86
2022/11/22 03:07:46;;;;;;;7.00;3.47;;;8.10;99.90;;;;;;5074130;28;20430;-86
2022/11/22 03:10:13;;;;;;;5.47;3.13;;;8.00;99.90;;;;;;5063129;28;20506;-87
2022/11/22 03:12:40;;;;;;;5.97;3.00;;;8.00;99.90;;;;;;5057069;28;20472;-87
2022/11/22 03:15:07;;;;;;;7.73;3.17;;;7.90;99.90;;;;;;5054499;28;20821;-87
2022/11/22 03:17:35;;;;;;;3.70;2.50;;;7.80;99.90;;;;;;5054199;28;20821;-87
2022/11/22 03:20:02;;;;;;;6.10;3.17;;;7.80;99.90;;;;;;5053891;28;20828;-86
2022/11/22 03:22:28;;;;;;;5.87;2.87;;;7.70;99.90;;;;;;5055182;28;20903;-86
2022/11/22 03:24:55;;;;;;;4.27;3.40;;;7.80;99.90;;;;;;5071404;28;20445;-86
2022/11/22 03:27:22;;;;;;;4.33;2.47;;;7.70;99.90;;;;;;5073053;28;20443;-86
2022/11/22 03:29:49;;;;;;;6.30;3.63;;;7.70;99.90;;;;;;5055414;28;20453;-86
2022/11/22 03:32:15;;;;;;;4.93;3.00;;;7.70;99.90;;;;;;5054157;28;20453;-87
2022/11/22 03:34:44;;;;;;;4.20;2.87;;;7.60;99.90;;;;;;5053941;28;20807;-87
2022/11/22 03:37:10;;;;;;;6.20;3.20;;;7.60;99.90;;;;;;5053563;28;21257;-87
2022/11/22 03:39:37;;;;;;;3.00;2.00;;;7.60;99.90;;;;;;5053729;28;20448;-87
2022/11/22 03:42:04;;;;;;;4.13;2.70;;;7.70;99.90;;;;;;5053467;28;20459;-87
2022/11/22 03:44:32;;;;;;;3.47;2.10;;;7.80;99.90;;;;;;5053914;28;20528;-87
2022/11/22 03:46:58;;;;;;;5.30;2.50;;;7.90;99.90;;;;;;5053270;28;20951;-87
2022/11/22 03:49:25;;;;;;;5.50;2.37;;;7.80;99.90;;;;;;5054222;28;20448;-87
2022/11/22 03:51:53;;;;;;;3.50;1.90;;;7.80;99.90;;;;;;5054443;28;20484;-84
2022/11/22 03:54:20;;;;;;;4.27;3.30;;;7.80;99.90;;;;;;5055259;28;20456;-84
2022/11/22 03:56:46;;;;;;;3.40;2.20;;;7.80;99.90;;;;;;5053812;28;20459;-84
2022/11/22 03:59:13;;;;;;;2.97;2.10;;;7.80;99.90;;;;;;5053042;28;20460;-84
2022/11/22 04:01:40;;;;;;;3.83;2.30;;;7.80;99.90;;;;;;5053519;28;20945;-84
2022/11/22 04:04:06;;;;;;;4.53;2.80;;;7.80;99.90;;;;;;5053564;28;20468;-84
2022/11/22 04:06:33;;;;;;;2.30;1.90;;;7.90;99.90;;;;;;5053830;28;20449;-84
2022/11/22 04:09:01;;;;;;;5.70;1.90;;;7.80;99.90;;;;;;5053632;28;20788;-84
2022/11/22 04:11:28;;;;;;;5.53;2.50;;;7.80;99.90;;;;;;5062123;28;20472;-84
2022/11/22 04:16:39;;;;;;;5.50;1.97;;;7.80;99.90;;;;;;5076388;28;20440;-84
2022/11/22 04:19:06;;;;;;;3.93;2.47;;;7.90;99.90;;;;;;5056785;28;20447;-84
2022/11/22 04:21:34;;;;;;;11.40;2.20;;;7.80;99.90;;;;;;5059185;28;20440;-84
2022/11/22 04:26:49;;;;;;;3.83;1.80;;;7.80;99.90;;;;;;5077269;28;20488;-85
2022/11/22 04:29:16;;;;;;;3.90;2.43;;;7.70;99.90;;;;;;5077566;28;20440;-84
2022/11/22 04:34:27;;;;;;;5.10;3.30;;;7.70;99.90;;;;;;5054171;28;20488;-84
2022/11/22 04:36:54;;;;;;;5.20;2.70;;;7.60;99.90;;;;;;5053333;28;20543;-84
2022/11/22 04:39:22;;;;;;;2.73;2.03;;;7.60;99.90;;;;;;5053175;28;20460;-85
2022/11/22 04:44:39;;;;;;;4.57;2.70;;;7.50;99.90;;;;;;5053722;28;20445;-84
2022/11/22 04:44:41;;;;;;;3.50;2.50;;;7.50;99.90;;;;;;5052948;28;20856;-85
2022/11/22 04:47:08;;;;;;;4.63;2.83;;;7.40;99.90;;;;;;5052735;28;20456;-85
2022/11/22 04:49:35;;;;;;;4.90;2.73;;;7.30;99.90;;;;;;5071732;28;20437;-85
2022/11/22 04:54:47;;;;;;;3.83;2.33;;;7.20;99.90;;;;;;5052558;28;20419;-87
2022/11/22 04:57:14;;;;;;;3.77;2.77;;;7.10;99.90;;;;;;5054791;28;20452;-87
2022/11/22 04:59:41;;;;;;;6.20;2.70;;;7.10;99.90;;;;;;5052479;28;20814;-86
2022/11/22 05:02:08;;;;;;;4.17;2.73;;;7.00;99.90;;;;;;5052413;28;20436;-87
2022/11/22 05:04:35;;;;;;;4.43;3.00;;;7.00;99.90;;;;;;5052546;28;20453;-87
2022/11/22 05:07:02;;;;;;;5.50;3.33;;;6.90;99.90;;;;;;5052136;28;20440;-86
2022/11/22 05:09:29;;;;;;;6.80;3.70;;;6.80;99.90;;;;;;5052542;28;20445;-85
2022/11/22 05:11:57;;;;;;;3.90;3.17;;;6.80;99.90;;;;;;5053014;28;20822;-84
2022/11/22 05:14:23;;;;;;;8.17;3.80;;;6.80;99.90;;;;;;5052320;28;20444;-84
2022/11/22 05:16:50;;;;;;;5.83;3.30;;;6.80;99.90;;;;;;5052208;28;20456;-84
2022/11/22 05:19:17;;;;;;;5.03;3.40;;;6.80;99.90;;;;;;5052130;28;20444;-84
2022/11/22 05:21:44;;;;;;;7.33;3.37;;;6.90;99.90;;;;;;5057572;28;20444;-85
2022/11/22 05:24:09;;;;;;;7.67;3.47;;;6.90;99.90;;;;;;5058208;28;20468;-85
2022/11/22 05:26:37;;;;;;;3.97;3.23;;;6.90;99.90;;;;;;5053182;28;20448;-85
2022/11/22 05:29:07;;;;;;;8.97;3.80;;;6.90;99.90;;;;;;5052592;28;20210;-85
2022/11/22 05:31:34;;;;;;;6.60;3.40;;;6.90;99.90;;;;;;5052977;28;20503;-85
2022/11/22 05:34:01;;;;;;;7.10;3.57;;;6.90;99.90;;;;;;5052999;28;20465;-85
2022/11/22 05:36:30;;;;;;;5.37;3.53;;;6.90;99.90;;;;;;5052579;28;20448;-85
2022/11/22 05:38:57;;;;;;;4.90;3.30;;;6.80;99.90;;;;;;5057206;28;20448;-85
2022/11/22 05:41:24;;;;;;;6.63;3.43;;;6.90;99.90;;;;;;5058440;28;20785;-85
2022/11/22 05:43:50;;;;;;;6.53;3.57;;;6.80;99.90;;;;;;5080232;28;20465;-85
2022/11/22 05:46:20;;;;;;;6.27;4.93;;;6.90;99.90;;;;;;5079123;28;20440;-85
2022/11/22 05:48:47;;;;;;;4.03;2.90;;;7.00;99.90;;;;;;5077443;28;20436;-85
2022/11/22 05:51:16;;;;;;;5.93;3.80;;;7.00;99.90;;;;;;5079406;28;20500;-86
2022/11/22 05:53:43;;;;;;;6.07;3.80;;;7.00;99.90;;;;;;5078751;28;20503;-85
2022/11/22 05:56:13;;;;;;;4.50;3.40;;;7.00;99.90;;;;;;5066539;28;20514;-85
2022/11/22 05:58:40;;;;;;;7.20;3.83;;;7.10;99.90;;;;;;5057690;28;20444;-85
2022/11/22 06:01:09;;;;;;;9.17;4.27;;;7.20;99.90;;;;;;5056847;28;20594;-85
2022/11/22 06:03:37;;;;;;;4.60;3.57;;;7.20;99.90;;;;;;5057559;28;20479;-85
2022/11/22 06:06:04;;;;;;;7.00;3.90;;;7.20;99.90;;;;;;5056421;28;20444;-85
2022/11/22 06:08:33;;;;;;;6.83;3.60;;;7.20;99.90;;;;;;5055764;28;20826;-85
2022/11/22 06:11:04;;;;;;;7.03;4.00;;;7.40;99.90;;;;;;5056201;28;20472;-85
2022/11/22 06:13:33;;;;;;;11.43;7.83;;;7.30;99.90;;;;;;5065089;28;20472;-86
2022/11/22 06:16:00;;;;;;;10.60;4.70;;;7.30;99.90;;;;;;5077350;28;20444;-86
2022/11/22 06:18:27;;;;;;;5.73;3.30;;;7.30;99.90;;;;;;5073990;28;20435;-87
2022/11/22 06:20:58;;;;;;;9.10;3.50;;;7.30;99.90;;;;;;5077864;28;20786;-86
2022/11/22 06:23:25;;;;;;;8.10;2.93;;;7.30;99.90;;;;;;5049620;28;20541;-86
2022/11/22 06:25:57;;;;;;;5.83;2.47;;;7.30;99.90;;;;;;5054305;28;20438;-86
2022/11/22 06:28:23;;;;;;;4.63;3.27;;;7.20;99.90;;;;;;5048920;28;20445;-86
2022/11/22 06:30:50;;;;;;;10.10;3.00;;;7.20;99.90;;;;;;5045480;28;20450;-85
2022/11/22 06:33:17;;;;;;;7.33;2.90;;;7.30;99.90;;;;;;5048862;28;20471;-86
2022/11/22 06:35:44;;;;;;;8.17;3.30;;;7.30;99.90;;;;;;5045594;28;20819;-86
2022/11/22 06:38:12;;;;;;;5.80;3.20;;;7.30;99.90;;;;;;5043577;28;20458;-86
2022/11/22 06:40:38;;;;;;;11.10;3.97;;;7.30;99.90;;;;;;5043523;28;20437;-86
2022/11/22 06:43:05;;;;;;;7.40;3.13;;;7.40;99.90;;;;;;5045431;28;20984;-86
2022/11/22 06:45:33;;;;;;;7.57;4.20;;;7.40;99.90;;;;;;5043550;28;20970;-86
2022/11/22 06:47:59;;;;;;;7.80;4.13;;;7.40;99.90;;;;;;5049520;28;20418;-86
2022/11/22 06:50:26;;;;;;;7.83;3.50;;;7.40;99.90;;;;;;5066782;28;20438;-86
2022/11/22 06:52:53;;;;;;;7.10;3.63;;;7.40;99.90;;;;;;5054646;28;20481;-87
2022/11/22 06:55:21;;;;;;;10.80;3.90;;;7.50;99.90;;;;;;5071540;28;20464;-85
2022/11/22 06:57:50;;;;;;;7.67;4.43;;;7.50;99.90;;;;;;5056241;28;20433;-86
2022/11/22 07:00:17;;;;;;;10.97;4.40;;;7.50;99.90;;;;;;5046427;28;20502;-86
2022/11/22 07:02:45;;;;;;;16.67;4.63;;;7.50;99.90;;;;;;5065259;28;20443;-85
2022/11/22 07:05:12;;;;;;;7.03;3.90;;;7.50;99.90;;;;;;5061303;28;20443;-86
2022/11/22 07:07:39;;;;;;;13.67;5.70;;;7.50;99.90;;;;;;5043927;28;20841;-87
2022/11/22 07:10:06;;;;;;;13.37;5.13;;;7.50;99.90;;;;;;5044057;28;20438;-86
2022/11/22 07:12:35;;;;;;;8.47;5.30;;;7.50;99.90;;;;;;5046209;28;20496;-86
2022/11/22 07:15:02;;;;;;;10.30;6.10;;;7.40;99.90;;;;;;5043615;28;20468;-86
2022/11/22 07:17:28;;;;;;;15.57;5.00;;;7.50;99.90;;;;;;5042632;28;20448;-86
2022/11/22 07:19:55;;;;;;;13.10;5.70;;;7.50;99.90;;;;;;5044373;28;20463;-87
2022/11/22 07:22:22;;;;;;;8.70;5.57;;;7.50;99.90;;;;;;5044089;28;20999;-87
2022/11/22 07:24:49;;;;;;;15.60;6.73;;;7.40;99.90;;;;;;5043985;28;20451;-86
2022/11/22 07:27:16;;;;;;;9.03;5.50;;;7.40;99.90;;;;;;5050983;28;20438;-86
2022/11/22 07:29:44;;;;;;;10.73;6.93;;;7.40;99.90;;;;;;5044889;28;20437;-86
2022/11/22 07:32:10;;;;;;;14.93;8.47;;;7.40;99.90;;;;;;5040678;28;20484;-86
2022/11/22 07:34:37;;;;;;;15.07;8.60;;;7.50;99.90;;;;;;5049986;28;20441;-86
2022/11/22 07:37:04;;;;;;;17.17;7.00;;;7.50;99.90;;;;;;5057211;28;20812;-86
2022/11/22 07:39:30;;;;;;;11.70;7.00;;;7.50;99.90;;;;;;5043624;28;20449;-86
2022/11/22 07:41:57;;;;;;;17.00;7.70;;;7.60;99.90;;;;;;5033947;28;21044;-86
2022/11/22 07:44:24;;;;;;;11.50;5.80;;;7.60;99.90;;;;;;5034316;28;20490;-86
2022/11/22 07:46:52;;;;;;;12.50;6.70;;;7.70;99.90;;;;;;5034708;28;20449;-86
2022/11/22 07:49:19;;;;;;;12.17;6.37;;;7.70;99.90;;;;;;5046120;28;20479;-87
2022/11/22 07:51:45;;;;;;;14.80;5.87;;;7.70;99.90;;;;;;5051447;28;20474;-85
2022/11/22 07:54:13;;;;;;;9.33;5.83;;;7.70;99.90;;;;;;5034160;28;20466;-86
2022/11/22 07:56:40;;;;;;;9.20;5.80;;;7.80;99.90;;;;;;5035235;28;20508;-85
2022/11/22 07:59:06;;;;;;;8.53;5.00;;;7.90;99.90;;;;;;5033722;28;20472;-86
2022/11/22 08:01:33;;;;;;;10.73;5.43;;;7.90;99.90;;;;;;5033259;28;20812;-86
2022/11/22 08:04:01;;;;;;;12.67;5.80;;;8.00;99.90;;;;;;5033566;28;20465;-86
2022/11/22 08:06:28;;;;;;;10.47;5.20;;;8.00;99.90;;;;;;5034279;28;20456;-86
2022/11/22 08:08:55;;;;;;;12.90;5.40;;;8.00;99.90;;;;;;5033737;28;20450;-86
2022/11/22 08:11:21;;;;;;;8.80;4.70;;;8.10;99.90;;;;;;5040516;28;20453;-86
2022/11/22 08:13:48;;;;;;;10.93;5.70;;;8.20;99.90;;;;;;5050050;28;20540;-87
2022/11/22 08:16:17;;;;;;;9.40;4.40;;;8.30;99.90;;;;;;5052292;28;20430;-86
2022/11/22 08:18:47;;;;;;;10.97;3.83;;;8.30;99.90;;;;;;5050828;28;20476;-86
2022/11/22 08:21:16;;;;;;;5.17;3.47;;;8.30;99.90;;;;;;5054499;28;20464;-86
2022/11/22 08:23:44;;;;;;;8.40;3.70;;;8.30;99.90;;;;;;5059204;28;20468;-86
2022/11/22 08:26:13;;;;;;;9.60;3.23;;;8.40;99.90;;;;;;5068929;28;20434;-86
2022/11/22 08:28:40;;;;;;;6.40;3.43;;;8.40;99.90;;;;;;5057451;28;20443;-86
2022/11/22 08:31:09;;;;;;;4.67;2.23;;;8.50;99.90;;;;;;5044614;28;20915;-86
2022/11/22 08:33:36;;;;;;;9.40;2.70;;;8.60;99.90;;;;;;5056616;28;20498;-86
2022/11/22 08:36:03;;;;;;;9.33;3.00;;;8.70;99.90;;;;;;5069974;28;20452;-86
2022/11/22 08:38:31;;;;;;;5.80;3.40;;;8.70;99.90;;;;;;5041097;28;20449;-85
2022/11/22 08:40:58;;;;;;;6.20;3.53;;;8.80;99.90;;;;;;5050181;28;20927;-86
2022/11/22 08:43:25;;;;;;;6.40;2.30;;;8.90;99.90;;;;;;5043771;28;20492;-86
2022/11/22 08:45:55;;;;;;;8.60;2.93;;;9.00;99.90;;;;;;5039300;28;20461;-86
2022/11/22 08:48:22;;;;;;;10.00;3.10;;;9.10;99.90;;;;;;5051281;28;20503;-86
2022/11/22 08:50:51;;;;;;;7.03;2.53;;;9.30;99.90;;;;;;5047714;28;20442;-86
2022/11/22 08:53:17;;;;;;;4.90;3.17;;;9.40;99.90;;;;;;5047408;28;20524;-86
2022/11/22 08:55:46;;;;;;;10.63;3.00;;;9.50;99.90;;;;;;5040570;28;20450;-86
2022/11/22 08:58:12;;;;;;;9.50;2.40;;;9.70;99.90;;;;;;5049210;28;20437;-86
2022/11/22 09:00:39;;;;;;;5.77;2.87;;;9.70;99.90;;;;;;5032329;28;20457;-86
2022/11/22 09:03:06;;;;;;;6.30;2.47;;;9.80;99.90;;;;;;5034421;28;20469;-87
2022/11/22 09:05:34;;;;;;;4.80;2.60;;;9.90;99.90;;;;;;5049888;28;20452;-87
2022/11/22 09:08:01;;;;;;;10.53;3.10;;;10.10;99.90;;;;;;5048383;28;20466;-87
2022/11/22 09:10:28;;;;;;;13.27;3.90;;;10.20;99.90;;;;;;5041428;28;20448;-87
2022/11/22 09:12:56;;;;;;;4.67;2.50;;;10.30;99.90;;;;;;5052957;28;20488;-87
2022/11/22 09:15:22;;;;;;;7.50;3.10;;;10.40;99.90;;;;;;5039513;28;20449;-86
2022/11/22 09:17:49;;;;;;;9.20;2.90;;;10.50;99.90;;;;;;5060431;28;20425;-86
2022/11/22 09:20:17;;;;;;;8.63;2.80;;;10.50;99.90;;;;;;5062146;28;20444;-86
2022/11/22 09:22:44;;;;;;;10.23;3.30;;;10.40;99.90;;;;;;5053969;28;20990;-86
2022/11/22 09:25:10;;;;;;;5.80;2.60;;;10.30;99.90;;;;;;5033235;28;20794;-86
2022/11/22 09:27:37;;;;;;;11.83;2.70;;;10.40;99.90;;;;;;5048719;28;20449;-86
2022/11/22 09:30:07;;;;;;;4.70;2.53;;;10.30;99.90;;;;;;5037197;28;20440;-85
2022/11/22 09:32:33;;;;;;;5.90;2.67;;;10.30;99.90;;;;;;5078582;22;20477;-81
2022/11/22 09:35:00;;;;;;;10.33;2.70;;;10.50;99.90;;;;;;5118634;28;20456;-82
2022/11/22 09:37:27;;;;;;;6.60;2.60;;;10.50;99.90;;;;;;5099477;28;20476;-82
2022/11/22 09:39:53;;;;;;;12.03;3.80;;;10.50;99.90;;;;;;5094876;28;20454;-83
2022/11/22 09:42:39;;;;;;;7.60;3.20;;;10.60;99.90;;;;;;5100326;28;20455;-82
2022/11/22 09:45:43;;;;;;;7.50;2.33;;;10.50;99.90;;;;;;5124487;28;20930;-84
2022/11/22 09:48:21;;;;;;;6.93;2.20;;;10.40;99.90;;;;;;5136513;27;20465;-83
2022/11/22 09:50:55;;;;;;;7.60;2.97;;;10.30;99.90;;;;;;5136923;27;20452;-82
2022/11/22 09:53:29;;;;;;;11.17;3.30;;;10.30;99.90;;;;;;5136364;27;20480;-83
2022/11/22 09:56:00;;;;;;;5.50;2.47;;;10.20;99.90;;;;;;5122245;28;20438;-84
2022/11/22 09:58:30;;;;;;;10.97;3.30;;;10.20;99.90;;;;;;5118987;28;20449;-83
2022/11/22 10:01:10;;;;;;;7.00;3.07;;;10.20;99.90;;;;;;5117927;28;20442;-84
2022/11/22 10:03:45;;;;;;;6.10;2.47;;;10.20;99.90;;;;;;5115873;28;20472;-84
2022/11/22 10:06:18;;;;;;;10.80;2.70;;;10.20;99.90;;;;;;5115199;28;20441;-83
2022/11/22 10:08:56;;;;;;;8.10;3.50;;;10.10;99.90;;;;;;5114949;28;20442;-83
2022/11/22 10:11:33;;;;;;;7.67;2.70;;;10.00;99.90;;;;;;5115255;28;20446;-83
2022/11/22 10:14:04;;;;;;;10.70;2.37;;;9.90;99.90;;;;;;5116686;28;20500;-84
2022/11/22 10:16:38;;;;;;;6.97;2.50;;;9.90;99.90;;;;;;5124763;28;20457;-84
2022/11/22 10:19:11;;;;;;;10.53;3.30;;;9.90;99.90;;;;;;5118308;28;20450;-82
2022/11/22 10:21:38;;;;;;;8.87;3.40;;;10.00;99.90;;;;;;5116425;28;20442;-82
2022/11/22 10:24:06;;;;;;;6.07;2.23;;;10.00;99.90;;;;;;5132780;28;20465;-82
2022/11/22 10:26:34;;;;;;;12.53;3.70;;;10.10;99.90;;;;;;5133956;28;20437;-83
2022/11/22 10:29:12;;;;;;;9.17;2.97;;;10.10;99.90;;;;;;5135523;28;20506;-84
2022/11/22 10:31:50;;;;;;;6.00;2.63;;;10.10;99.90;;;;;;5121151;28;20441;-83
2022/11/22 10:34:26;;;;;;;11.13;3.30;;;10.10;99.90;;;;;;5127057;28;20533;-83
2022/11/22 10:36:59;;;;;;;6.13;2.50;;;10.10;99.90;;;;;;5130876;28;20809;-83
2022/11/22 10:39:49;;;;;;;10.33;2.73;;;10.00;99.90;;;;;;5120316;28;20446;-83
2022/11/22 10:42:29;;;;;;;6.70;3.30;;;9.80;99.90;;;;;;5120689;28;20862;-83
2022/11/22 10:45:02;;;;;;;5.80;2.70;;;9.80;99.90;;;;;;5120726;28;20447;-83
2022/11/22 10:47:45;;;;;;;9.50;2.97;;;9.80;99.90;;;;;;5119842;28;20930;-83
2022/11/22 10:50:16;;;;;;;7.00;2.20;;;9.80;99.90;;;;;;5120753;28;20442;-83
2022/11/22 10:52:52;;;;;;;5.60;2.33;;;9.70;99.90;;;;;;5120758;28;20489;-83
2022/11/22 10:55:33;;;;;;;4.33;2.10;;;9.70;99.90;;;;;;5122261;28;20442;-84
2022/11/22 10:58:05;;;;;;;12.10;3.80;;;9.70;99.90;;;;;;5131262;28;20511;-81
2022/11/22 11:00:36;;;;;;;7.17;2.33;;;9.60;99.90;;;;;;5126644;28;20446;-82
2022/11/22 11:03:14;;;;;;;5.03;2.03;;;9.60;99.90;;;;;;5118487;28;20510;-82
2022/11/22 11:05:47;;;;;;;10.67;2.87;;;9.70;99.90;;;;;;5118029;28;20442;-83
2022/11/22 11:08:16;;;;;;;5.90;2.13;;;9.90;99.90;;;;;;5118923;28;20448;-84
2022/11/22 11:10:45;;;;;;;9.43;2.70;;;9.90;99.90;;;;;;5118949;28;20456;-83
2022/11/22 11:13:21;;;;;;;5.13;1.90;;;9.90;99.90;;;;;;5119737;28;20485;-83
2022/11/22 11:15:50;;;;;;;4.67;2.20;;;9.90;99.90;;;;;;5119540;28;20449;-83
2022/11/22 11:18:25;;;;;;;8.73;1.90;;;9.90;99.90;;;;;;5119309;28;20446;-82
2022/11/22 11:20:52;;;;;;;5.67;2.13;;;9.80;99.90;;;;;;5121283;28;20442;-83
2022/11/22 11:23:19;;;;;;;9.70;2.17;;;9.80;99.90;;;;;;5118258;28;20466;-83
2022/11/22 11:25:48;;;;;;;10.70;2.03;;;9.80;99.90;;;;;;5119251;28;20442;-83
2022/11/22 11:28:19;;;;;;;4.83;1.80;;;9.90;99.90;;;;;;5119978;28;20441;-82
2022/11/22 11:30:49;;;;;;;6.80;1.73;;;9.90;99.90;;;;;;5123257;28;20450;-85
2022/11/22 11:33:25;;;;;;;14.80;5.80;;;10.00;99.90;;;;;;5119932;28;20500;-83
2022/11/22 11:35:55;;;;;;;4.90;2.73;;;10.10;99.90;;;;;;5122358;28;20449;-82
2022/11/22 11:38:30;;;;;;;4.27;1.30;;;10.10;99.90;;;;;;5123279;28;20446;-83
2022/11/22 11:40:57;;;;;;;4.47;1.70;;;10.20;99.90;;;;;;5120545;28;20706;-83
2022/11/22 11:43:25;;;;;;;4.47;1.90;;;10.20;99.90;;;;;;5127524;28;20465;-81
2022/11/22 11:45:52;;;;;;;4.53;1.87;;;10.10;99.90;;;;;;5126387;28;20442;-82
2022/11/22 11:48:28;;;;;;;8.13;1.87;;;10.10;99.90;;;;;;5121845;28;20479;-83
2022/11/22 11:51:14;;;;;;;6.77;3.50;;;10.30;99.90;;;;;;5124537;28;20442;-82
2022/11/22 11:53:41;;;;;;;8.70;2.20;;;10.50;99.90;;;;;;5132140;28;20511;-79
2022/11/22 11:56:32;;;;;;;7.77;1.87;;;10.70;99.90;;;;;;5121748;28;20453;-79
2022/11/22 11:59:03;;;;;;;4.87;2.40;;;10.60;99.90;;;;;;5117230;28;20811;-80
2022/11/22 12:01:34;;;;;;;4.40;1.50;;;10.70;99.90;;;;;;5120026;28;20442;-82
2022/11/22 12:04:05;;;;;;;4.50;1.37;;;10.60;99.90;;;;;;5119625;28;20515;-83
2022/11/22 12:06:33;;;;;;;3.50;1.80;;;10.70;99.90;;;;;;5120219;28;20449;-82
2022/11/22 12:09:01;;;;;;;4.47;1.40;;;11.00;99.90;;;;;;5120593;28;20465;-82
2022/11/22 12:11:38;;;;;;;6.03;2.03;;;11.30;99.90;;;;;;5119571;28;20442;-82
2022/11/22 12:14:10;;;;;;;2.90;1.30;;;11.20;99.20;;;;;;5120438;28;20496;-82
2022/11/22 12:16:43;;;;;;;7.83;2.70;;;10.90;98.00;;;;;;5125939;28;20950;-82
2022/11/22 12:19:20;;;;;;;11.17;1.53;;;10.80;99.20;;;;;;5131706;28;20445;-81
2022/11/22 12:21:55;;;;;;;4.87;1.50;;;10.90;99.00;;;;;;5132420;28;20434;-82
2022/11/22 12:24:27;;;;;;;3.10;1.27;;;10.80;98.90;;;;;;5124646;28;20850;-82
2022/11/22 12:26:55;;;;;;;8.40;1.83;;;10.70;98.80;;;;;;5123461;28;20833;-82
2022/11/22 12:29:23;;;;;;;4.80;1.43;;;10.70;98.90;;;;;;5132419;27;20456;-80
2022/11/22 12:31:54;;;;;;;6.07;2.03;;;10.60;98.80;;;;;;5128522;28;20438;-83
2022/11/22 12:34:25;;;;;;;5.50;2.50;;;10.80;99.50;;;;;;5121280;28;20549;-83
2022/11/22 12:36:56;;;;;;;5.80;1.60;;;11.10;99.20;;;;;;5121577;28;20446;-83
2022/11/22 12:39:26;;;;;;;14.17;2.40;;;11.30;98.90;;;;;;5121817;28;20567;-83
2022/11/22 12:41:57;;;;;;;6.70;1.83;;;11.30;98.60;;;;;;5126701;28;20945;-82
2022/11/22 12:44:25;;;;;;;6.93;1.70;;;11.10;98.10;;;;;;5120514;28;20470;-82
2022/11/22 12:46:58;;;;;;;12.53;2.57;;;11.00;98.30;;;;;;5119747;28;20970;-83
2022/11/22 12:49:39;;;;;;;8.33;1.87;;;10.80;97.80;;;;;;5124303;28;20442;-82
2022/11/22 12:52:15;;;;;;;4.67;1.67;;;10.60;98.40;;;;;;5129862;28;20499;-83
2022/11/22 12:54:57;;;;;;;5.23;1.83;;;10.70;98.30;;;;;;5123836;28;20479;-83
2022/11/22 12:57:32;;;;;;;6.07;1.70;;;10.70;98.40;;;;;;5129633;28;20446;-83
2022/11/22 13:00:06;;;;;;;7.77;1.53;;;10.70;98.20;;;;;;5123348;28;20446;-83
2022/11/22 13:02:38;;;;;;;5.23;2.33;;;10.60;98.40;;;;;;5131446;28;20501;-81
2022/11/22 13:05:13;;;;;;;3.40;1.53;;;10.60;98.50;;;;;;5122705;28;20481;-83
2022/11/22 13:07:56;;;;;;;9.03;2.00;;;10.60;98.40;;;;;;5121283;28;20441;-84
2022/11/22 13:10:31;;;;;;;3.43;1.70;;;10.70;98.80;;;;;;5120656;28;20448;-85
2022/11/22 13:13:00;;;;;;;5.00;1.70;;;10.70;97.80;;;;;;5118996;28;20492;-84